createdAt,value
2022-12-27T00:00:54.751Z,12.23
2022-12-27T00:03:21.489Z,12.17
2022-12-27T00:05:49.050Z,12.11
2022-12-27T00:08:16.310Z,12.05
2022-12-27T00:10:43.383Z,12.01
2022-12-27T00:13:10.167Z,11.97
2022-12-27T00:15:37.247Z,11.95
2022-12-27T00:18:03.954Z,11.95
2022-12-27T00:20:30.869Z,11.96
2022-12-27T00:22:59.808Z,11.96
2022-12-27T00:25:26.554Z,11.95
2022-12-27T00:27:53.319Z,11.95
2022-12-27T00:30:20.944Z,11.93
2022-12-27T00:32:47.651Z,11.95
2022-12-27T00:35:14.494Z,11.97
2022-12-27T00:37:41.159Z,11.99
2022-12-27T00:40:09.102Z,11.99
2022-12-27T00:42:36.865Z,11.99
2022-12-27T00:45:03.986Z,12.00
2022-12-27T00:47:30.678Z,11.99
2022-12-27T00:49:58.280Z,11.98
2022-12-27T00:52:25.012Z,11.95
2022-12-27T00:54:51.824Z,11.94
2022-12-27T00:57:18.546Z,11.90
2022-12-27T00:59:45.401Z,11.85
2022-12-27T01:02:12.156Z,11.80
2022-12-27T01:04:39.282Z,11.69
2022-12-27T01:07:05.928Z,11.62
2022-12-27T01:09:33.514Z,11.57
2022-12-27T01:12:00.252Z,11.50
2022-12-27T01:14:26.984Z,11.45
2022-12-27T01:16:53.790Z,11.37
2022-12-27T01:19:21.335Z,11.10
2022-12-27T01:21:48.091Z,11.17
2022-12-27T01:24:14.999Z,11.06
2022-12-27T01:26:41.823Z,10.97
2022-12-27T01:29:11.497Z,10.89
2022-12-27T01:31:38.626Z,10.81
2022-12-27T01:34:05.441Z,10.71
2022-12-27T01:36:33.133Z,10.63
2022-12-27T01:39:00.253Z,10.56
2022-12-27T01:41:47.931Z,10.50
2022-12-27T01:44:32.958Z,10.43
2022-12-27T01:47:00.812Z,10.37
2022-12-27T01:49:27.664Z,10.33
2022-12-27T01:51:59.742Z,10.28
2022-12-27T01:54:26.600Z,10.28
2022-12-27T01:56:55.792Z,10.27
2022-12-27T01:59:25.262Z,10.28
2022-12-27T02:01:52.948Z,10.28
2022-12-27T02:04:23.589Z,10.29
2022-12-27T02:06:51.610Z,10.30
2022-12-27T02:09:18.255Z,10.31
2022-12-27T02:11:53.781Z,10.33
2022-12-27T02:14:31.513Z,10.38
2022-12-27T02:17:00.529Z,10.46
2022-12-27T02:19:36.460Z,10.56
2022-12-27T02:22:21.719Z,10.66
2022-12-27T02:24:54.382Z,10.75
2022-12-27T02:27:21.233Z,10.81
2022-12-27T02:29:57.892Z,10.86
2022-12-27T02:32:57.834Z,10.93
2022-12-27T02:35:32.083Z,11.00
2022-12-27T02:38:04.856Z,11.05
2022-12-27T02:40:51.207Z,11.11
2022-12-27T02:43:37.613Z,11.14
2022-12-27T02:46:22.884Z,11.18
2022-12-27T02:49:23.496Z,11.23
2022-12-27T02:52:11.848Z,11.26
2022-12-27T02:54:52.975Z,11.30
2022-12-27T02:57:25.165Z,11.34
2022-12-27T03:00:21.538Z,11.35
2022-12-27T03:03:17.819Z,11.40
2022-12-27T03:06:37.431Z,11.42
2022-12-27T03:09:09.403Z,11.43
2022-12-27T03:12:06.875Z,11.45
2022-12-27T03:15:01.422Z,11.48
2022-12-27T03:17:40.381Z,11.51
2022-12-27T03:20:32.061Z,11.50
2022-12-27T03:23:20.103Z,11.53
2022-12-27T03:25:49.524Z,11.52
2022-12-27T03:28:37.114Z,11.51
2022-12-27T03:31:25.864Z,11.48
2022-12-27T03:34:04.559Z,11.49
2022-12-27T03:36:52.082Z,11.48
2022-12-27T03:39:26.343Z,11.46
2022-12-27T03:42:15.824Z,11.42
2022-12-27T03:44:43.071Z,11.37
2022-12-27T03:47:30.741Z,11.32
2022-12-27T03:50:14.168Z,11.28
2022-12-27T03:53:01.462Z,11.26
2022-12-27T03:55:33.150Z,11.24
2022-12-27T03:58:00.345Z,11.23
2022-12-27T04:00:27.123Z,11.19
2022-12-27T04:02:56.796Z,11.13
2022-12-27T04:05:23.527Z,11.12
2022-12-27T04:08:09.068Z,11.08
2022-12-27T04:10:54.134Z,11.07
2022-12-27T04:13:39.783Z,11.02
2022-12-27T04:16:25.415Z,11.00
2022-12-27T04:19:10.973Z,10.93
2022-12-27T04:21:57.747Z,10.93
2022-12-27T04:24:44.688Z,10.89
2022-12-27T04:27:30.018Z,10.88
2022-12-27T04:30:16.073Z,10.87
2022-12-27T04:33:01.974Z,10.88
2022-12-27T04:35:29.375Z,10.86
2022-12-27T04:37:56.047Z,10.85
2022-12-27T04:40:41.392Z,10.84
2022-12-27T04:43:27.757Z,10.82
2022-12-27T04:46:13.516Z,10.81
2022-12-27T04:48:58.867Z,10.77
2022-12-27T04:51:44.073Z,10.75
2022-12-27T04:54:41.088Z,10.71
2022-12-27T04:57:07.899Z,10.69
2022-12-27T04:59:53.039Z,10.66
2022-12-27T05:02:20.161Z,10.63
2022-12-27T05:04:48.300Z,10.61
2022-12-27T05:07:34.712Z,10.59
2022-12-27T05:10:23.480Z,10.56
2022-12-27T05:13:08.786Z,10.54
2022-12-27T05:15:36.613Z,10.51
2022-12-27T05:18:03.572Z,10.52
2022-12-27T05:20:30.651Z,10.48
2022-12-27T05:23:15.602Z,10.47
2022-12-27T05:25:43.270Z,10.44
2022-12-27T05:28:10.767Z,10.39
2022-12-27T05:30:39.994Z,10.40
2022-12-27T05:33:07.279Z,10.40
2022-12-27T05:35:34.694Z,10.41
2022-12-27T05:38:01.709Z,10.41
2022-12-27T05:40:29.513Z,10.38
2022-12-27T05:42:58.222Z,10.35
2022-12-27T05:45:25.070Z,10.36
2022-12-27T05:47:51.910Z,10.39
2022-12-27T05:50:18.871Z,10.39
2022-12-27T05:52:49.415Z,10.39
2022-12-27T05:55:16.408Z,10.39
2022-12-27T05:57:43.072Z,10.41
2022-12-27T06:00:11.258Z,10.43
2022-12-27T06:02:42.630Z,10.43
2022-12-27T06:05:10.675Z,10.45
2022-12-27T06:07:37.952Z,10.48
2022-12-27T06:10:06.264Z,10.51
2022-12-27T06:12:33.071Z,10.53
2022-12-27T06:15:00.390Z,10.54
2022-12-27T06:17:27.382Z,10.53
2022-12-27T06:19:57.238Z,10.49
2022-12-27T06:22:24.944Z,10.44
2022-12-27T06:24:52.118Z,10.37
2022-12-27T06:27:18.965Z,10.32
2022-12-27T06:29:46.577Z,10.27
2022-12-27T06:32:14.105Z,10.24
2022-12-27T06:34:41.336Z,10.22
2022-12-27T06:37:08.156Z,10.21
2022-12-27T06:39:35.895Z,10.20
2022-12-27T06:42:02.867Z,10.18
2022-12-27T06:44:30.491Z,10.18
2022-12-27T06:46:57.168Z,10.16
2022-12-27T06:49:25.965Z,10.15
2022-12-27T06:51:59.361Z,10.11
2022-12-27T06:54:27.567Z,10.08
2022-12-27T06:56:55.740Z,10.05
2022-12-27T06:59:22.989Z,9.98
2022-12-27T07:01:50.327Z,9.91
2022-12-27T07:04:18.035Z,9.86
2022-12-27T07:06:45.010Z,9.83
2022-12-27T07:09:13.432Z,9.82
2022-12-27T07:11:40.280Z,9.80
2022-12-27T07:14:09.479Z,9.82
2022-12-27T07:16:36.435Z,9.82
2022-12-27T07:19:03.394Z,9.83
2022-12-27T07:21:30.284Z,9.85
2022-12-27T07:23:57.419Z,9.87
2022-12-27T07:26:27.950Z,9.87
2022-12-27T07:28:55.491Z,9.88
2022-12-27T07:31:26.714Z,9.86
2022-12-27T07:33:53.638Z,9.89
2022-12-27T07:36:21.723Z,9.90
2022-12-27T07:38:48.682Z,9.94
2022-12-27T07:41:15.525Z,9.96
2022-12-27T07:43:44.406Z,10.00
2022-12-27T07:46:13.044Z,10.03
2022-12-27T07:48:39.924Z,10.05
2022-12-27T07:51:07.111Z,10.10
2022-12-27T07:53:34.335Z,10.16
2022-12-27T07:56:05.845Z,10.25
2022-12-27T07:58:35.676Z,10.52
2022-12-27T08:01:03.234Z,10.89
2022-12-27T08:03:31.217Z,11.25
2022-12-27T08:05:58.093Z,11.58
2022-12-27T08:08:27.000Z,11.98
2022-12-27T08:10:53.684Z,12.45
2022-12-27T08:13:20.354Z,12.86
2022-12-27T08:15:47.762Z,13.36
2022-12-27T08:18:14.454Z,13.80
2022-12-27T08:20:41.284Z,14.18
2022-12-27T08:23:07.971Z,14.65
2022-12-27T08:25:34.862Z,15.16
2022-12-27T08:31:42.455Z,16.22
2022-12-27T08:34:09.239Z,16.62
2022-12-27T08:36:54.663Z,16.96
2022-12-27T08:39:22.251Z,17.18
2022-12-27T08:41:49.044Z,17.48
2022-12-27T08:44:15.780Z,17.69
2022-12-27T08:46:42.598Z,17.91
2022-12-27T08:49:09.416Z,18.12
2022-12-27T08:51:41.159Z,18.38
2022-12-27T08:54:09.579Z,18.65
2022-12-27T08:56:36.445Z,18.89
2022-12-27T08:59:07.438Z,19.13
2022-12-27T09:01:34.397Z,19.44
2022-12-27T09:04:01.927Z,19.72
2022-12-27T09:06:28.865Z,19.98
2022-12-27T09:08:56.244Z,20.25
2022-12-27T09:11:27.488Z,20.43
2022-12-27T09:13:54.620Z,20.52
2022-12-27T09:16:23.766Z,20.47
2022-12-27T09:18:52.308Z,20.58
2022-12-27T09:21:19.990Z,20.75
2022-12-27T09:23:48.107Z,21.02
2022-12-27T09:26:16.859Z,21.31
2022-12-27T09:28:43.757Z,21.53
2022-12-27T09:31:11.136Z,21.76
2022-12-27T09:33:39.176Z,22.05
2022-12-27T09:36:09.944Z,22.24
2022-12-27T09:38:37.218Z,22.45
2022-12-27T09:41:19.327Z,22.58
2022-12-27T09:44:01.475Z,22.77
2022-12-27T09:46:48.570Z,23.00
2022-12-27T09:49:18.430Z,23.23
2022-12-27T09:51:48.084Z,23.45
2022-12-27T09:54:16.412Z,23.65
2022-12-27T09:57:10.007Z,23.69
2022-12-27T09:59:36.415Z,23.81
2022-12-27T10:02:04.606Z,23.73
2022-12-27T10:05:10.045Z,23.97
2022-12-27T10:07:28.437Z,23.31
2022-12-27T10:09:55.196Z,21.94
2022-12-27T10:12:31.611Z,20.69
2022-12-27T10:14:59.904Z,19.54
2022-12-27T10:17:52.657Z,18.66
2022-12-27T10:20:26.161Z,17.80
2022-12-27T10:22:54.582Z,17.17
2022-12-27T10:25:23.405Z,16.68
2022-12-27T10:27:55.198Z,16.28
2022-12-27T10:30:22.446Z,15.91
2022-12-27T10:32:49.144Z,15.69
2022-12-27T10:35:18.328Z,15.51
2022-12-27T10:37:45.679Z,15.31
2022-12-27T10:40:13.365Z,15.21
2022-12-27T10:42:44.255Z,15.17
2022-12-27T10:45:32.415Z,15.16
2022-12-27T10:48:11.567Z,15.11
2022-12-27T10:50:40.249Z,14.89
2022-12-27T10:53:06.977Z,14.89
2022-12-27T10:55:33.776Z,14.82
2022-12-27T10:58:18.861Z,14.78
2022-12-27T11:00:56.637Z,14.74
2022-12-27T11:03:26.412Z,14.61
2022-12-27T11:06:00.936Z,14.60
2022-12-27T11:08:28.567Z,14.55
2022-12-27T11:11:24.732Z,14.38
2022-12-27T11:13:53.225Z,14.23
2022-12-27T11:16:26.221Z,14.19
2022-12-27T11:18:54.468Z,14.19
2022-12-27T11:21:27.526Z,14.20
2022-12-27T11:24:02.473Z,14.20
2022-12-27T11:27:01.648Z,14.14
2022-12-27T11:29:29.777Z,13.95
2022-12-27T11:31:57.138Z,13.83
2022-12-27T11:34:31.240Z,13.72
2022-12-27T11:37:13.274Z,13.66
2022-12-27T11:39:40.162Z,13.59
2022-12-27T11:42:12.686Z,13.45
2022-12-27T11:44:42.583Z,13.38
2022-12-27T11:47:27.931Z,13.30
2022-12-27T11:50:15.585Z,13.24
2022-12-27T11:52:45.397Z,13.18
2022-12-27T11:55:31.206Z,13.14
2022-12-27T11:58:06.908Z,13.04
2022-12-27T12:00:43.945Z,12.97
2022-12-27T12:03:22.692Z,12.90
2022-12-27T12:05:58.607Z,12.82
2022-12-27T12:08:31.824Z,12.77
2022-12-27T12:11:06.944Z,12.66
2022-12-27T12:13:39.924Z,12.55
2022-12-27T12:16:25.437Z,12.43
2022-12-27T12:19:00.399Z,12.35
2022-12-27T12:21:45.616Z,12.28
2022-12-27T12:24:18.243Z,12.22
2022-12-27T12:26:51.584Z,12.23
2022-12-27T12:29:26.338Z,12.25
2022-12-27T12:32:17.094Z,12.29
2022-12-27T12:35:02.145Z,12.34
2022-12-27T12:37:47.586Z,12.32
2022-12-27T12:40:25.339Z,12.29
2022-12-27T12:43:21.640Z,12.29
2022-12-27T12:45:50.079Z,12.31
2022-12-27T12:48:20.660Z,12.24
2022-12-27T12:50:57.349Z,12.21
2022-12-27T12:53:34.585Z,12.21
2022-12-27T12:56:09.662Z,12.17
2022-12-27T12:58:49.023Z,12.15
2022-12-27T13:01:18.971Z,12.13
2022-12-27T13:04:04.244Z,12.15
2022-12-27T13:06:47.355Z,12.21
2022-12-27T13:09:49.649Z,12.24
2022-12-27T13:12:25.511Z,12.19
2022-12-27T13:14:52.438Z,12.12
2022-12-27T13:17:22.668Z,12.08
2022-12-27T13:19:55.438Z,12.07
2022-12-27T13:22:26.150Z,12.11
2022-12-27T13:24:59.256Z,12.19
2022-12-27T13:27:31.208Z,12.25
2022-12-27T13:30:03.017Z,12.30
2022-12-27T13:32:42.927Z,12.36
2022-12-27T13:35:20.999Z,12.38
2022-12-27T13:37:47.735Z,12.41
2022-12-27T13:40:23.470Z,12.38
2022-12-27T13:42:56.190Z,12.33
2022-12-27T13:45:41.284Z,12.28
2022-12-27T13:48:13.947Z,12.23
2022-12-27T13:50:51.773Z,12.16
2022-12-27T13:53:37.871Z,12.06
2022-12-27T13:56:51.855Z,12.04
2022-12-27T13:59:19.766Z,12.02
2022-12-27T14:01:49.824Z,11.98
2022-12-27T14:04:26.677Z,12.01
2022-12-27T14:07:12.243Z,12.04
2022-12-27T14:09:48.114Z,12.04
2022-12-27T14:12:33.740Z,12.02
2022-12-27T14:15:02.667Z,11.95
2022-12-27T14:17:55.611Z,11.88
2022-12-27T14:20:41.897Z,11.83
2022-12-27T14:23:17.936Z,11.72
2022-12-27T14:26:03.358Z,11.67
2022-12-27T14:28:42.207Z,11.63
2022-12-27T14:31:25.598Z,11.63
2022-12-27T14:34:01.917Z,11.61
2022-12-27T14:36:48.498Z,11.61
2022-12-27T14:39:33.669Z,11.58
2022-12-27T14:42:18.501Z,11.56
2022-12-27T14:45:03.697Z,11.54
2022-12-27T14:47:30.518Z,11.57
2022-12-27T14:50:06.179Z,11.60
2022-12-27T14:52:33.690Z,11.59
2022-12-27T14:55:18.769Z,11.58
2022-12-27T14:57:59.083Z,11.57
2022-12-27T15:00:28.329Z,11.53
2022-12-27T15:03:13.569Z,11.50
2022-12-27T15:06:01.489Z,11.46
2022-12-27T15:08:48.612Z,11.42
2022-12-27T15:11:37.916Z,11.39
2022-12-27T15:14:07.838Z,11.33
2022-12-27T15:16:53.387Z,11.28
2022-12-27T15:19:39.153Z,11.21
2022-12-27T15:22:26.575Z,11.12
2022-12-27T15:24:59.679Z,11.09
2022-12-27T15:27:33.266Z,11.06
2022-12-27T15:30:10.561Z,11.03
2022-12-27T15:33:09.932Z,11.01
2022-12-27T15:35:36.697Z,11.03
2022-12-27T15:38:17.916Z,11.04
2022-12-27T15:40:48.159Z,11.02
2022-12-27T15:43:14.878Z,11.02
2022-12-27T15:46:00.898Z,11.03
2022-12-27T15:48:30.754Z,11.04
2022-12-27T15:51:09.845Z,11.04
2022-12-27T15:53:43.448Z,11.01
2022-12-27T15:56:29.042Z,10.99
2022-12-27T15:59:16.077Z,10.94
2022-12-27T16:01:43.789Z,10.90
2022-12-27T16:04:29.358Z,10.89
2022-12-27T16:07:02.221Z,10.87
2022-12-27T16:09:30.798Z,10.86
2022-12-27T16:12:02.544Z,10.85
2022-12-27T16:14:30.948Z,10.85
2022-12-27T16:17:13.976Z,10.87
2022-12-27T16:19:50.815Z,10.88
2022-12-27T16:22:26.353Z,10.87
2022-12-27T16:24:53.732Z,10.89
2022-12-27T16:27:27.836Z,10.88
2022-12-27T16:29:56.980Z,10.87
2022-12-27T16:32:25.978Z,10.87
2022-12-27T16:34:57.565Z,10.85
2022-12-27T16:37:33.760Z,10.86
2022-12-27T16:40:22.009Z,10.83
2022-12-27T16:42:54.593Z,10.82
2022-12-27T16:45:24.227Z,10.81
2022-12-27T16:48:09.900Z,10.80
2022-12-27T16:50:47.409Z,10.77
2022-12-27T16:53:32.468Z,10.75
2022-12-27T16:56:17.728Z,10.72
2022-12-27T16:58:44.531Z,10.69
2022-12-27T17:01:26.309Z,10.67
2022-12-27T17:03:54.978Z,10.67
2022-12-27T17:06:37.043Z,10.64
2022-12-27T17:09:10.338Z,10.64
2022-12-27T17:12:03.865Z,10.65
2022-12-27T17:14:38.306Z,10.63
2022-12-27T17:17:13.927Z,10.62
2022-12-27T17:19:52.263Z,10.62
2022-12-27T17:22:21.022Z,10.62
2022-12-27T17:24:48.736Z,10.61
2022-12-27T17:27:34.166Z,10.60
2022-12-27T17:30:20.194Z,10.60
2022-12-27T17:32:50.167Z,10.60
2022-12-27T17:35:35.571Z,10.59
2022-12-27T17:38:02.346Z,10.56
2022-12-27T17:40:29.029Z,10.54
2022-12-27T17:43:17.319Z,10.56
2022-12-27T17:46:02.653Z,10.53
2022-12-27T17:48:30.087Z,10.52
2022-12-27T17:51:09.318Z,10.54
2022-12-27T17:54:03.314Z,10.55
2022-12-27T17:56:49.058Z,10.52
2022-12-27T17:59:27.162Z,10.53
2022-12-27T18:01:57.155Z,10.50
2022-12-27T18:04:26.393Z,10.50
2022-12-27T18:06:57.244Z,10.49
2022-12-27T18:09:27.560Z,10.48
2022-12-27T18:11:54.289Z,10.41
2022-12-27T18:14:21.130Z,10.40
2022-12-27T18:16:47.886Z,10.39
2022-12-27T18:19:20.932Z,10.36
2022-12-27T18:21:55.409Z,10.33
2022-12-27T18:24:30.093Z,10.31
2022-12-27T18:27:00.689Z,10.29
2022-12-27T18:29:27.530Z,10.32
2022-12-27T18:31:55.836Z,10.32
2022-12-27T18:34:29.582Z,10.31
2022-12-27T18:37:02.787Z,10.28
2022-12-27T18:39:31.638Z,10.25
2022-12-27T18:41:59.408Z,10.23
2022-12-27T18:44:28.695Z,10.21
2022-12-27T18:46:57.862Z,10.22
2022-12-27T18:49:26.709Z,10.18
2022-12-27T18:51:55.232Z,10.15
2022-12-27T18:54:22.101Z,10.11
2022-12-27T18:56:51.031Z,10.11
2022-12-27T18:59:17.851Z,10.11
2022-12-27T19:01:45.849Z,10.14
2022-12-27T19:04:17.140Z,10.13
2022-12-27T19:07:04.242Z,10.11
2022-12-27T19:09:33.600Z,10.08
2022-12-27T19:12:01.946Z,10.05
2022-12-27T19:14:36.110Z,10.02
2022-12-27T19:17:10.794Z,10.00
2022-12-27T19:19:38.432Z,9.99
2022-12-27T19:22:25.119Z,9.95
2022-12-27T19:24:58.322Z,9.93
2022-12-27T19:27:25.139Z,9.92
2022-12-27T19:29:52.472Z,9.89
2022-12-27T19:32:29.050Z,9.84
2022-12-27T19:34:58.509Z,9.77
2022-12-27T19:37:26.837Z,9.73
2022-12-27T19:39:58.160Z,9.74
2022-12-27T19:42:32.587Z,9.74
2022-12-27T19:45:00.000Z,9.71
2022-12-27T19:47:27.435Z,9.67
2022-12-27T19:49:54.469Z,9.67
2022-12-27T19:52:22.303Z,9.62
2022-12-27T19:54:50.904Z,9.55
2022-12-27T19:57:17.536Z,9.51
2022-12-27T19:59:44.438Z,9.47
2022-12-27T20:02:11.452Z,9.48
2022-12-27T20:04:38.793Z,9.44
2022-12-27T20:07:05.766Z,9.43
2022-12-27T20:09:32.509Z,9.41
2022-12-27T20:11:59.444Z,9.41
2022-12-27T20:14:26.401Z,9.37
2022-12-27T20:16:53.094Z,9.31
2022-12-27T20:19:20.314Z,9.27
2022-12-27T20:21:47.496Z,9.20
2022-12-27T20:24:14.902Z,9.17
2022-12-27T20:26:42.059Z,9.16
2022-12-27T20:29:09.283Z,9.14
2022-12-27T20:31:42.451Z,9.13
2022-12-27T20:34:11.448Z,9.07
2022-12-27T20:36:38.209Z,9.04
2022-12-27T20:39:06.008Z,9.00
2022-12-27T20:41:32.890Z,9.00
2022-12-27T20:44:01.465Z,8.97
2022-12-27T20:46:28.277Z,8.95
2022-12-27T20:48:55.824Z,8.93
2022-12-27T20:51:24.186Z,8.93
2022-12-27T20:53:56.097Z,8.92
2022-12-27T20:56:23.133Z,8.86
2022-12-27T20:58:49.857Z,8.79
2022-12-27T21:01:18.805Z,8.75
2022-12-27T21:03:45.664Z,8.73
2022-12-27T21:06:14.673Z,8.71
2022-12-27T21:08:47.939Z,8.71
2022-12-27T21:11:20.417Z,8.67
2022-12-27T21:13:48.931Z,8.67
2022-12-27T21:16:17.590Z,8.66
2022-12-27T21:18:44.307Z,8.65
2022-12-27T21:21:13.047Z,8.64
2022-12-27T21:23:40.949Z,8.60
2022-12-27T21:26:09.945Z,8.59
2022-12-27T21:28:36.979Z,8.58
2022-12-27T21:31:05.180Z,8.58
2022-12-27T21:33:32.882Z,8.50
2022-12-27T21:36:04.115Z,8.47
2022-12-27T21:38:31.028Z,8.46
2022-12-27T21:40:58.647Z,8.47
2022-12-27T21:43:26.584Z,8.46
2022-12-27T21:45:55.680Z,8.46
2022-12-27T21:48:22.456Z,8.46
2022-12-27T21:50:50.455Z,8.47
2022-12-27T21:53:18.625Z,8.46
2022-12-27T21:55:45.475Z,8.44
2022-12-27T21:58:12.494Z,8.43
2022-12-27T22:00:39.272Z,8.37
2022-12-27T22:03:06.355Z,8.39
2022-12-27T22:05:33.417Z,8.38
2022-12-27T22:08:00.157Z,8.34
2022-12-27T22:10:26.933Z,8.31
2022-12-27T22:12:53.670Z,8.26
2022-12-27T22:15:20.598Z,8.23
2022-12-27T22:17:47.271Z,8.18
2022-12-27T22:20:15.367Z,8.13
2022-12-27T22:22:42.089Z,8.12
2022-12-27T22:25:08.989Z,8.12
2022-12-27T22:27:35.767Z,7.78
2022-12-27T22:30:02.524Z,7.59
2022-12-27T22:32:29.217Z,7.52
2022-12-27T22:34:56.022Z,7.52
2022-12-27T22:37:22.729Z,7.50
2022-12-27T22:39:50.327Z,7.50
2022-12-27T22:42:17.246Z,7.50
2022-12-27T22:44:43.971Z,7.46
2022-12-27T22:47:27.682Z,7.46
2022-12-27T22:49:55.760Z,7.47
2022-12-27T22:52:22.413Z,7.50
2022-12-27T22:55:05.796Z,7.51
2022-12-27T22:57:33.996Z,7.55
2022-12-27T23:00:00.664Z,7.59
2022-12-27T23:02:28.337Z,7.60
2022-12-27T23:04:55.242Z,7.62
2022-12-27T23:08:05.348Z,7.62
2022-12-27T23:10:10.555Z,7.62
2022-12-27T23:12:37.236Z,7.61
2022-12-27T23:15:04.130Z,7.60
2022-12-27T23:17:30.837Z,7.58
2022-12-27T23:19:57.630Z,7.57
2022-12-27T23:22:24.326Z,7.59
2022-12-27T23:24:51.971Z,7.59
2022-12-27T23:27:18.798Z,7.61
2022-12-27T23:29:45.520Z,7.64
2022-12-27T23:32:12.232Z,7.67
2022-12-27T23:34:39.027Z,7.72
2022-12-27T23:37:05.743Z,7.71
2022-12-27T23:39:33.112Z,7.70
2022-12-27T23:41:59.768Z,7.72
2022-12-27T23:44:33.170Z,7.73
2022-12-27T23:47:02.672Z,7.74
2022-12-27T23:49:29.858Z,7.74
2022-12-27T23:51:56.787Z,7.74
2022-12-27T23:54:23.553Z,7.73
2022-12-27T23:56:50.291Z,7.69
2022-12-27T23:59:16.975Z,7.69
